sensor_id;sensor_type;location;lat;lon;timestamp;pressure;altitude;pressure_sealevel;temperature
66170;BMP280;66757;44.024;20.456;2023-05-07T00:00:37;98032.44;;;12.94
66170;BMP280;66757;44.024;20.456;2023-05-07T00:03:03;98027.88;;;12.94
66170;BMP280;66757;44.024;20.456;2023-05-07T00:05:28;98027.56;;;12.87
66170;BMP280;66757;44.024;20.456;2023-05-07T00:07:54;98027.72;;;12.82
66170;BMP280;66757;44.024;20.456;2023-05-07T00:10:19;98033.66;;;12.79
66170;BMP280;66757;44.024;20.456;2023-05-07T00:12:46;98042.72;;;12.69
66170;BMP280;66757;44.024;20.456;2023-05-07T00:15:11;98032.25;;;12.73
66170;BMP280;66757;44.024;20.456;2023-05-07T00:17:37;98036.59;;;12.60
66170;BMP280;66757;44.024;20.456;2023-05-07T00:20:04;98036.78;;;12.64
66170;BMP280;66757;44.024;20.456;2023-05-07T00:22:30;98033.03;;;12.65
66170;BMP280;66757;44.024;20.456;2023-05-07T00:24:56;98027.22;;;12.63
66170;BMP280;66757;44.024;20.456;2023-05-07T00:27:22;98031.28;;;12.60
66170;BMP280;66757;44.024;20.456;2023-05-07T00:29:48;98033.63;;;12.62
66170;BMP280;66757;44.024;20.456;2023-05-07T00:32:13;98032.69;;;12.49
66170;BMP280;66757;44.024;20.456;2023-05-07T00:34:38;98033.47;;;12.58
66170;BMP280;66757;44.024;20.456;2023-05-07T00:37:05;98030.34;;;12.65
66170;BMP280;66757;44.024;20.456;2023-05-07T00:39:35;98042.53;;;12.40
66170;BMP280;66757;44.024;20.456;2023-05-07T00:42:00;98042.34;;;12.45
66170;BMP280;66757;44.024;20.456;2023-05-07T00:44:26;98042.38;;;12.62
66170;BMP280;66757;44.024;20.456;2023-05-07T00:46:53;98041.22;;;12.29
66170;BMP280;66757;44.024;20.456;2023-05-07T00:49:19;98035.63;;;12.48
66170;BMP280;66757;44.024;20.456;2023-05-07T00:51:45;98043.00;;;12.51
66170;BMP280;66757;44.024;20.456;2023-05-07T00:54:11;98047.25;;;12.52
66170;BMP280;66757;44.024;20.456;2023-05-07T00:56:37;98048.44;;;11.89
66170;BMP280;66757;44.024;20.456;2023-05-07T00:59:05;98049.19;;;12.20
66170;BMP280;66757;44.024;20.456;2023-05-07T01:01:32;98046.28;;;12.39
66170;BMP280;66757;44.024;20.456;2023-05-07T01:03:57;98043.72;;;12.25
66170;BMP280;66757;44.024;20.456;2023-05-07T01:06:24;98042.47;;;12.23
66170;BMP280;66757;44.024;20.456;2023-05-07T01:08:51;98039.19;;;12.26
66170;BMP280;66757;44.024;20.456;2023-05-07T01:11:18;98041.09;;;12.34
66170;BMP280;66757;44.024;20.456;2023-05-07T01:13:46;98039.31;;;12.21
66170;BMP280;66757;44.024;20.456;2023-05-07T01:16:12;98040.84;;;12.13
66170;BMP280;66757;44.024;20.456;2023-05-07T01:18:38;98039.97;;;12.26
66170;BMP280;66757;44.024;20.456;2023-05-07T01:21:04;98038.19;;;12.04
66170;BMP280;66757;44.024;20.456;2023-05-07T01:23:30;98035.69;;;12.08
66170;BMP280;66757;44.024;20.456;2023-05-07T01:25:55;98043.66;;;12.08
66170;BMP280;66757;44.024;20.456;2023-05-07T01:28:21;98037.09;;;12.14
66170;BMP280;66757;44.024;20.456;2023-05-07T01:30:52;98041.94;;;12.03
66170;BMP280;66757;44.024;20.456;2023-05-07T01:33:20;98036.47;;;12.09
66170;BMP280;66757;44.024;20.456;2023-05-07T01:35:53;98038.28;;;11.99
66170;BMP280;66757;44.024;20.456;2023-05-07T01:38:21;98043.47;;;11.74
66170;BMP280;66757;44.024;20.456;2023-05-07T01:40:47;98044.88;;;11.71
66170;BMP280;66757;44.024;20.456;2023-05-07T01:43:13;98040.81;;;11.74
66170;BMP280;66757;44.024;20.456;2023-05-07T01:45:39;98043.06;;;11.58
66170;BMP280;66757;44.024;20.456;2023-05-07T01:48:06;98043.47;;;11.74
66170;BMP280;66757;44.024;20.456;2023-05-07T01:50:33;98037.38;;;11.73
66170;BMP280;66757;44.024;20.456;2023-05-07T01:52:59;98034.16;;;11.54
66170;BMP280;66757;44.024;20.456;2023-05-07T01:55:24;98031.72;;;11.66
66170;BMP280;66757;44.024;20.456;2023-05-07T01:57:50;98032.41;;;11.49
66170;BMP280;66757;44.024;20.456;2023-05-07T02:00:16;98037.91;;;11.53
66170;BMP280;66757;44.024;20.456;2023-05-07T02:02:42;98029.44;;;11.51
66170;BMP280;66757;44.024;20.456;2023-05-07T02:05:08;98030.03;;;11.48
66170;BMP280;66757;44.024;20.456;2023-05-07T02:07:33;98035.19;;;11.44
66170;BMP280;66757;44.024;20.456;2023-05-07T02:09:59;98038.91;;;11.43
66170;BMP280;66757;44.024;20.456;2023-05-07T02:12:24;98036.94;;;11.49
66170;BMP280;66757;44.024;20.456;2023-05-07T02:14:50;98033.97;;;11.50
66170;BMP280;66757;44.024;20.456;2023-05-07T02:17:15;98040.06;;;11.51
66170;BMP280;66757;44.024;20.456;2023-05-07T02:19:41;98040.78;;;11.43
66170;BMP280;66757;44.024;20.456;2023-05-07T02:22:07;98036.13;;;11.48
66170;BMP280;66757;44.024;20.456;2023-05-07T02:24:33;98036.06;;;11.31
66170;BMP280;66757;44.024;20.456;2023-05-07T02:26:58;98030.31;;;11.38
66170;BMP280;66757;44.024;20.456;2023-05-07T02:29:23;98030.75;;;11.31
66170;BMP280;66757;44.024;20.456;2023-05-07T02:31:49;98035.34;;;11.25
66170;BMP280;66757;44.024;20.456;2023-05-07T02:34:16;98029.72;;;11.27
66170;BMP280;66757;44.024;20.456;2023-05-07T02:36:42;98029.22;;;11.16
66170;BMP280;66757;44.024;20.456;2023-05-07T02:39:08;98029.72;;;11.27
66170;BMP280;66757;44.024;20.456;2023-05-07T02:41:33;98029.06;;;10.99
66170;BMP280;66757;44.024;20.456;2023-05-07T02:43:59;98037.94;;;11.17
66170;BMP280;66757;44.024;20.456;2023-05-07T02:46:24;98033.22;;;11.14
66170;BMP280;66757;44.024;20.456;2023-05-07T02:48:50;98035.88;;;11.14
66170;BMP280;66757;44.024;20.456;2023-05-07T02:51:19;98033.53;;;11.12
66170;BMP280;66757;44.024;20.456;2023-05-07T02:53:46;98037.56;;;11.10
66170;BMP280;66757;44.024;20.456;2023-05-07T02:56:12;98036.88;;;11.18
66170;BMP280;66757;44.024;20.456;2023-05-07T02:58:38;98034.75;;;11.06
66170;BMP280;66757;44.024;20.456;2023-05-07T03:01:07;98030.53;;;11.05
66170;BMP280;66757;44.024;20.456;2023-05-07T03:03:33;98038.00;;;11.03
66170;BMP280;66757;44.024;20.456;2023-05-07T03:06:00;98039.44;;;11.09
66170;BMP280;66757;44.024;20.456;2023-05-07T03:08:26;98044.28;;;11.07
66170;BMP280;66757;44.024;20.456;2023-05-07T03:10:52;98041.88;;;10.83
66170;BMP280;66757;44.024;20.456;2023-05-07T03:13:17;98039.66;;;10.99
66170;BMP280;66757;44.024;20.456;2023-05-07T03:15:43;98045.34;;;10.70
66170;BMP280;66757;44.024;20.456;2023-05-07T03:18:08;98052.69;;;11.01
66170;BMP280;66757;44.024;20.456;2023-05-07T03:20:34;98046.00;;;11.12
66170;BMP280;66757;44.024;20.456;2023-05-07T03:22:59;98041.72;;;11.16
66170;BMP280;66757;44.024;20.456;2023-05-07T03:25:25;98047.25;;;11.28
66170;BMP280;66757;44.024;20.456;2023-05-07T03:27:50;98050.97;;;11.27
66170;BMP280;66757;44.024;20.456;2023-05-07T03:30:16;98055.34;;;10.87
66170;BMP280;66757;44.024;20.456;2023-05-07T03:32:43;98059.97;;;11.17
66170;BMP280;66757;44.024;20.456;2023-05-07T03:35:09;98060.72;;;11.31
66170;BMP280;66757;44.024;20.456;2023-05-07T03:37:35;98063.06;;;11.33
66170;BMP280;66757;44.024;20.456;2023-05-07T03:40:00;98058.38;;;11.30
66170;BMP280;66757;44.024;20.456;2023-05-07T03:42:26;98054.94;;;11.29
66170;BMP280;66757;44.024;20.456;2023-05-07T03:44:51;98057.69;;;11.24
66170;BMP280;66757;44.024;20.456;2023-05-07T03:47:17;98062.38;;;11.27
66170;BMP280;66757;44.024;20.456;2023-05-07T03:49:43;98056.78;;;11.29
66170;BMP280;66757;44.024;20.456;2023-05-07T03:52:09;98067.88;;;10.95
66170;BMP280;66757;44.024;20.456;2023-05-07T03:54:34;98065.94;;;11.01
66170;BMP280;66757;44.024;20.456;2023-05-07T03:56:59;98068.66;;;10.95
66170;BMP280;66757;44.024;20.456;2023-05-07T03:59:25;98066.53;;;10.84
66170;BMP280;66757;44.024;20.456;2023-05-07T04:01:51;98074.66;;;11.01
66170;BMP280;66757;44.024;20.456;2023-05-07T04:04:17;98078.34;;;10.91
66170;BMP280;66757;44.024;20.456;2023-05-07T04:06:42;98075.47;;;10.88
66170;BMP280;66757;44.024;20.456;2023-05-07T04:09:08;98079.78;;;10.97
66170;BMP280;66757;44.024;20.456;2023-05-07T04:11:35;98076.59;;;11.09
66170;BMP280;66757;44.024;20.456;2023-05-07T04:14:00;98080.66;;;11.07
66170;BMP280;66757;44.024;20.456;2023-05-07T04:16:26;98083.06;;;11.17
66170;BMP280;66757;44.024;20.456;2023-05-07T04:18:51;98081.88;;;11.23
66170;BMP280;66757;44.024;20.456;2023-05-07T04:21:18;98096.75;;;10.60
66170;BMP280;66757;44.024;20.456;2023-05-07T04:23:44;98098.50;;;10.51
66170;BMP280;66757;44.024;20.456;2023-05-07T04:26:09;98084.91;;;10.53
66170;BMP280;66757;44.024;20.456;2023-05-07T04:28:35;98085.72;;;10.67
66170;BMP280;66757;44.024;20.456;2023-05-07T04:31:01;98088.72;;;11.02
66170;BMP280;66757;44.024;20.456;2023-05-07T04:33:26;98096.94;;;11.50
66170;BMP280;66757;44.024;20.456;2023-05-07T04:35:53;98091.47;;;11.46
66170;BMP280;66757;44.024;20.456;2023-05-07T04:38:18;98101.41;;;11.63
66170;BMP280;66757;44.024;20.456;2023-05-07T04:40:44;98099.63;;;11.58
66170;BMP280;66757;44.024;20.456;2023-05-07T04:43:12;98095.41;;;11.80
66170;BMP280;66757;44.024;20.456;2023-05-07T04:45:39;98102.88;;;11.55
66170;BMP280;66757;44.024;20.456;2023-05-07T04:48:07;98097.84;;;11.67
66170;BMP280;66757;44.024;20.456;2023-05-07T04:50:32;98100.25;;;12.09
66170;BMP280;66757;44.024;20.456;2023-05-07T04:52:58;98106.84;;;12.11
66170;BMP280;66757;44.024;20.456;2023-05-07T04:55:23;98104.69;;;12.22
66170;BMP280;66757;44.024;20.456;2023-05-07T04:57:49;98110.44;;;12.15
66170;BMP280;66757;44.024;20.456;2023-05-07T05:00:15;98112.97;;;12.51
66170;BMP280;66757;44.024;20.456;2023-05-07T05:02:41;98111.75;;;12.66
66170;BMP280;66757;44.024;20.456;2023-05-07T05:05:08;98108.31;;;12.74
66170;BMP280;66757;44.024;20.456;2023-05-07T05:07:33;98109.41;;;12.73
66170;BMP280;66757;44.024;20.456;2023-05-07T05:09:59;98108.34;;;12.83
66170;BMP280;66757;44.024;20.456;2023-05-07T05:12:25;98106.50;;;13.00
66170;BMP280;66757;44.024;20.456;2023-05-07T05:14:50;98108.19;;;13.05
66170;BMP280;66757;44.024;20.456;2023-05-07T05:17:16;98106.34;;;13.14
66170;BMP280;66757;44.024;20.456;2023-05-07T05:19:41;98108.69;;;13.07
66170;BMP280;66757;44.024;20.456;2023-05-07T05:22:06;98103.53;;;13.10
66170;BMP280;66757;44.024;20.456;2023-05-07T05:24:32;98105.56;;;13.13
66170;BMP280;66757;44.024;20.456;2023-05-07T05:26:57;98108.22;;;13.31
66170;BMP280;66757;44.024;20.456;2023-05-07T05:29:26;98106.19;;;13.45
66170;BMP280;66757;44.024;20.456;2023-05-07T05:31:51;98098.34;;;13.57
66170;BMP280;66757;44.024;20.456;2023-05-07T05:34:16;98102.06;;;13.82
66170;BMP280;66757;44.024;20.456;2023-05-07T05:36:45;98095.72;;;13.95
66170;BMP280;66757;44.024;20.456;2023-05-07T05:39:10;98101.28;;;14.11
66170;BMP280;66757;44.024;20.456;2023-05-07T05:41:36;98096.25;;;14.27
66170;BMP280;66757;44.024;20.456;2023-05-07T05:44:01;98097.25;;;14.43
66170;BMP280;66757;44.024;20.456;2023-05-07T05:46:26;98099.28;;;14.46
66170;BMP280;66757;44.024;20.456;2023-05-07T05:48:52;98106.09;;;14.85
66170;BMP280;66757;44.024;20.456;2023-05-07T05:51:17;98098.75;;;15.03
66170;BMP280;66757;44.024;20.456;2023-05-07T05:53:43;98092.59;;;15.23
66170;BMP280;66757;44.024;20.456;2023-05-07T05:56:08;98097.66;;;15.36
66170;BMP280;66757;44.024;20.456;2023-05-07T05:58:34;98100.31;;;15.69
66170;BMP280;66757;44.024;20.456;2023-05-07T06:00:59;98099.91;;;15.80
66170;BMP280;66757;44.024;20.456;2023-05-07T06:03:25;98097.13;;;16.12
66170;BMP280;66757;44.024;20.456;2023-05-07T06:05:51;98093.34;;;16.13
66170;BMP280;66757;44.024;20.456;2023-05-07T06:08:16;98090.00;;;16.29
66170;BMP280;66757;44.024;20.456;2023-05-07T06:10:42;98095.78;;;16.55
66170;BMP280;66757;44.024;20.456;2023-05-07T06:13:07;98095.44;;;16.57
66170;BMP280;66757;44.024;20.456;2023-05-07T06:15:33;98094.28;;;16.70
66170;BMP280;66757;44.024;20.456;2023-05-07T06:17:58;98091.88;;;16.65
66170;BMP280;66757;44.024;20.456;2023-05-07T06:20:24;98093.75;;;16.64
66170;BMP280;66757;44.024;20.456;2023-05-07T06:22:49;98097.50;;;16.87
66170;BMP280;66757;44.024;20.456;2023-05-07T06:25:15;98097.09;;;17.01
66170;BMP280;66757;44.024;20.456;2023-05-07T06:27:40;98087.69;;;17.07
66170;BMP280;66757;44.024;20.456;2023-05-07T06:30:07;98081.06;;;17.60
66170;BMP280;66757;44.024;20.456;2023-05-07T06:32:32;98085.56;;;17.72
66170;BMP280;66757;44.024;20.456;2023-05-07T06:34:58;98081.78;;;17.73
66170;BMP280;66757;44.024;20.456;2023-05-07T06:37:23;98083.81;;;18.11
66170;BMP280;66757;44.024;20.456;2023-05-07T06:39:49;98071.16;;;18.27
66170;BMP280;66757;44.024;20.456;2023-05-07T06:42:14;98079.41;;;18.03
66170;BMP280;66757;44.024;20.456;2023-05-07T06:44:40;98065.56;;;18.17
66170;BMP280;66757;44.024;20.456;2023-05-07T06:47:05;98073.44;;;18.44
66170;BMP280;66757;44.024;20.456;2023-05-07T06:49:31;98077.19;;;18.59
66170;BMP280;66757;44.024;20.456;2023-05-07T06:51:56;98081.38;;;18.57
66170;BMP280;66757;44.024;20.456;2023-05-07T06:54:23;98079.00;;;18.55
66170;BMP280;66757;44.024;20.456;2023-05-07T06:56:49;98081.53;;;18.64
66170;BMP280;66757;44.024;20.456;2023-05-07T06:59:14;98073.88;;;18.66
66170;BMP280;66757;44.024;20.456;2023-05-07T07:01:40;98075.72;;;18.81
66170;BMP280;66757;44.024;20.456;2023-05-07T07:04:05;98072.22;;;19.00
66170;BMP280;66757;44.024;20.456;2023-05-07T07:06:32;98076.56;;;19.04
66170;BMP280;66757;44.024;20.456;2023-05-07T07:08:58;98077.09;;;19.59
66170;BMP280;66757;44.024;20.456;2023-05-07T07:11:24;98078.78;;;19.44
66170;BMP280;66757;44.024;20.456;2023-05-07T07:13:50;98078.91;;;19.28
66170;BMP280;66757;44.024;20.456;2023-05-07T07:16:16;98074.72;;;19.77
66170;BMP280;66757;44.024;20.456;2023-05-07T07:18:41;98073.75;;;19.88
66170;BMP280;66757;44.024;20.456;2023-05-07T07:21:06;98077.16;;;20.12
66170;BMP280;66757;44.024;20.456;2023-05-07T07:23:32;98078.81;;;20.20
66170;BMP280;66757;44.024;20.456;2023-05-07T07:25:58;98078.13;;;19.74
66170;BMP280;66757;44.024;20.456;2023-05-07T07:28:23;98075.50;;;19.77
66170;BMP280;66757;44.024;20.456;2023-05-07T07:30:48;98072.91;;;20.11
66170;BMP280;66757;44.024;20.456;2023-05-07T07:33:14;98084.09;;;20.13
66170;BMP280;66757;44.024;20.456;2023-05-07T07:35:40;98072.97;;;20.44
66170;BMP280;66757;44.024;20.456;2023-05-07T07:38:05;98079.78;;;20.64
66170;BMP280;66757;44.024;20.456;2023-05-07T07:40:34;98076.94;;;20.87
66170;BMP280;66757;44.024;20.456;2023-05-07T07:43:00;98078.84;;;20.86
66170;BMP280;66757;44.024;20.456;2023-05-07T07:45:26;98079.19;;;21.15
66170;BMP280;66757;44.024;20.456;2023-05-07T07:47:53;98079.31;;;21.32
66170;BMP280;66757;44.024;20.456;2023-05-07T07:50:18;98081.75;;;21.45
66170;BMP280;66757;44.024;20.456;2023-05-07T07:52:44;98075.56;;;21.44
66170;BMP280;66757;44.024;20.456;2023-05-07T07:55:10;98070.09;;;21.37
66170;BMP280;66757;44.024;20.456;2023-05-07T07:57:35;98067.34;;;21.78
66170;BMP280;66757;44.024;20.456;2023-05-07T08:00:01;98070.91;;;21.96
66170;BMP280;66757;44.024;20.456;2023-05-07T08:02:27;98076.94;;;21.71
66170;BMP280;66757;44.024;20.456;2023-05-07T08:04:53;98074.91;;;21.54
66170;BMP280;66757;44.024;20.456;2023-05-07T08:07:18;98071.66;;;21.86
66170;BMP280;66757;44.024;20.456;2023-05-07T08:09:46;98074.06;;;22.01
66170;BMP280;66757;44.024;20.456;2023-05-07T08:12:12;98072.84;;;21.95
66170;BMP280;66757;44.024;20.456;2023-05-07T08:14:39;98067.50;;;22.02
66170;BMP280;66757;44.024;20.456;2023-05-07T08:17:04;98077.25;;;22.17
66170;BMP280;66757;44.024;20.456;2023-05-07T08:19:30;98075.25;;;22.11
66170;BMP280;66757;44.024;20.456;2023-05-07T08:21:55;98090.09;;;22.42
66170;BMP280;66757;44.024;20.456;2023-05-07T08:24:21;98086.28;;;22.57
66170;BMP280;66757;44.024;20.456;2023-05-07T08:26:46;98080.16;;;22.78
66170;BMP280;66757;44.024;20.456;2023-05-07T08:29:12;98081.75;;;22.86
66170;BMP280;66757;44.024;20.456;2023-05-07T08:31:37;98076.34;;;23.03
66170;BMP280;66757;44.024;20.456;2023-05-07T08:34:05;98086.25;;;22.53
66170;BMP280;66757;44.024;20.456;2023-05-07T08:36:31;98082.22;;;22.12
66170;BMP280;66757;44.024;20.456;2023-05-07T08:38:57;98084.31;;;22.43
66170;BMP280;66757;44.024;20.456;2023-05-07T08:41:23;98077.44;;;22.64
66170;BMP280;66757;44.024;20.456;2023-05-07T08:43:50;98081.75;;;22.89
66170;BMP280;66757;44.024;20.456;2023-05-07T08:46:22;98081.72;;;22.82
66170;BMP280;66757;44.024;20.456;2023-05-07T08:48:48;98084.13;;;23.19
66170;BMP280;66757;44.024;20.456;2023-05-07T08:51:17;98076.75;;;23.48
66170;BMP280;66757;44.024;20.456;2023-05-07T08:53:45;98076.34;;;23.25
66170;BMP280;66757;44.024;20.456;2023-05-07T08:56:11;98071.34;;;23.27
66170;BMP280;66757;44.024;20.456;2023-05-07T08:58:37;98068.63;;;23.37
66170;BMP280;66757;44.024;20.456;2023-05-07T09:01:07;98070.94;;;23.64
66170;BMP280;66757;44.024;20.456;2023-05-07T09:03:33;98067.06;;;23.79
66170;BMP280;66757;44.024;20.456;2023-05-07T09:05:58;98064.38;;;23.68
66170;BMP280;66757;44.024;20.456;2023-05-07T09:08:25;98070.84;;;24.06
66170;BMP280;66757;44.024;20.456;2023-05-07T09:10:52;98064.59;;;24.20
66170;BMP280;66757;44.024;20.456;2023-05-07T09:13:18;98062.22;;;24.32
66170;BMP280;66757;44.024;20.456;2023-05-07T09:15:44;98065.50;;;24.68
66170;BMP280;66757;44.024;20.456;2023-05-07T09:18:09;98055.81;;;24.71
66170;BMP280;66757;44.024;20.456;2023-05-07T09:20:38;98058.78;;;24.91
66170;BMP280;66757;44.024;20.456;2023-05-07T09:23:04;98062.66;;;24.90
66170;BMP280;66757;44.024;20.456;2023-05-07T09:25:31;98061.06;;;24.99
66170;BMP280;66757;44.024;20.456;2023-05-07T09:27:57;98061.66;;;25.17
66170;BMP280;66757;44.024;20.456;2023-05-07T09:30:22;98060.09;;;25.20
66170;BMP280;66757;44.024;20.456;2023-05-07T09:32:47;98056.72;;;25.53
66170;BMP280;66757;44.024;20.456;2023-05-07T09:35:17;98053.34;;;25.39
66170;BMP280;66757;44.024;20.456;2023-05-07T09:37:43;98047.56;;;26.04
66170;BMP280;66757;44.024;20.456;2023-05-07T09:40:20;98051.13;;;26.32
66170;BMP280;66757;44.024;20.456;2023-05-07T09:42:45;98056.38;;;26.46
66170;BMP280;66757;44.024;20.456;2023-05-07T09:45:12;98055.56;;;26.49
66170;BMP280;66757;44.024;20.456;2023-05-07T09:47:39;98048.31;;;26.66
66170;BMP280;66757;44.024;20.456;2023-05-07T09:50:08;98047.63;;;27.08
66170;BMP280;66757;44.024;20.456;2023-05-07T09:52:36;98044.00;;;27.38
66170;BMP280;66757;44.024;20.456;2023-05-07T09:55:02;98056.06;;;27.60
66170;BMP280;66757;44.024;20.456;2023-05-07T09:57:28;98053.91;;;27.87
66170;BMP280;66757;44.024;20.456;2023-05-07T09:59:56;98044.81;;;28.30
66170;BMP280;66757;44.024;20.456;2023-05-07T10:02:23;98043.81;;;28.24
66170;BMP280;66757;44.024;20.456;2023-05-07T10:04:50;98050.91;;;30.26
66170;BMP280;66757;44.024;20.456;2023-05-07T10:07:16;98060.31;;;31.84
66170;BMP280;66757;44.024;20.456;2023-05-07T10:09:43;98060.50;;;32.39
66170;BMP280;66757;44.024;20.456;2023-05-07T10:12:09;98062.00;;;32.22
66170;BMP280;66757;44.024;20.456;2023-05-07T10:14:35;98062.72;;;32.62
66170;BMP280;66757;44.024;20.456;2023-05-07T10:17:02;98061.97;;;32.62
66170;BMP280;66757;44.024;20.456;2023-05-07T10:19:29;98047.72;;;30.53
66170;BMP280;66757;44.024;20.456;2023-05-07T10:22:00;98052.03;;;31.75
66170;BMP280;66757;44.024;20.456;2023-05-07T10:24:30;98049.75;;;32.14
66170;BMP280;66757;44.024;20.456;2023-05-07T10:26:58;98047.41;;;31.94
66170;BMP280;66757;44.024;20.456;2023-05-07T10:29:36;98052.97;;;32.70
66170;BMP280;66757;44.024;20.456;2023-05-07T10:32:30;98048.66;;;34.16
66170;BMP280;66757;44.024;20.456;2023-05-07T10:35:02;98048.38;;;32.85
66170;BMP280;66757;44.024;20.456;2023-05-07T10:37:28;98038.00;;;30.86
66170;BMP280;66757;44.024;20.456;2023-05-07T10:39:54;98050.22;;;32.97
66170;BMP280;66757;44.024;20.456;2023-05-07T10:42:20;98036.78;;;33.08
66170;BMP280;66757;44.024;20.456;2023-05-07T10:44:46;98035.06;;;34.37
66170;BMP280;66757;44.024;20.456;2023-05-07T10:47:13;98042.97;;;30.53
66170;BMP280;66757;44.024;20.456;2023-05-07T10:52:18;98040.56;;;33.29
66170;BMP280;66757;44.024;20.456;2023-05-07T10:54:44;98038.84;;;33.41
66170;BMP280;66757;44.024;20.456;2023-05-07T10:57:33;98041.00;;;33.28
66170;BMP280;66757;44.024;20.456;2023-05-07T11:00:01;98027.75;;;33.35
66170;BMP280;66757;44.024;20.456;2023-05-07T11:05:41;98030.19;;;32.97
66170;BMP280;66757;44.024;20.456;2023-05-07T11:08:08;98029.47;;;32.96
66170;BMP280;66757;44.024;20.456;2023-05-07T11:10:51;98025.09;;;33.50
66170;BMP280;66757;44.024;20.456;2023-05-07T11:13:40;98020.75;;;33.67
66170;BMP280;66757;44.024;20.456;2023-05-07T11:16:05;98033.25;;;32.72
66170;BMP280;66757;44.024;20.456;2023-05-07T11:23:57;98023.94;;;32.69
66170;BMP280;66757;44.024;20.456;2023-05-07T11:26:23;98017.75;;;30.84
66170;BMP280;66757;44.024;20.456;2023-05-07T11:28:48;98013.53;;;30.70
66170;BMP280;66757;44.024;20.456;2023-05-07T11:31:23;98005.88;;;30.52
66170;BMP280;66757;44.024;20.456;2023-05-07T11:33:49;98019.59;;;29.48
66170;BMP280;66757;44.024;20.456;2023-05-07T11:36:15;98017.41;;;28.53
66170;BMP280;66757;44.024;20.456;2023-05-07T11:38:41;98021.66;;;28.02
66170;BMP280;66757;44.024;20.456;2023-05-07T11:41:07;98011.75;;;28.44
66170;BMP280;66757;44.024;20.456;2023-05-07T11:43:33;98004.78;;;28.43
66170;BMP280;66757;44.024;20.456;2023-05-07T11:46:09;98003.31;;;28.22
66170;BMP280;66757;44.024;20.456;2023-05-07T11:48:35;97996.00;;;27.99
66170;BMP280;66757;44.024;20.456;2023-05-07T11:51:02;98010.16;;;27.94
66170;BMP280;66757;44.024;20.456;2023-05-07T11:53:36;98006.38;;;28.57
66170;BMP280;66757;44.024;20.456;2023-05-07T11:56:06;98007.13;;;28.89
66170;BMP280;66757;44.024;20.456;2023-05-07T11:58:58;98013.81;;;28.24
66170;BMP280;66757;44.024;20.456;2023-05-07T12:01:23;98005.75;;;28.52
66170;BMP280;66757;44.024;20.456;2023-05-07T12:03:49;98011.28;;;28.49
66170;BMP280;66757;44.024;20.456;2023-05-07T12:06:16;98019.41;;;27.61
66170;BMP280;66757;44.024;20.456;2023-05-07T12:08:43;98012.63;;;28.25
66170;BMP280;66757;44.024;20.456;2023-05-07T12:11:22;98014.19;;;29.03
66170;BMP280;66757;44.024;20.456;2023-05-07T12:13:48;98008.09;;;27.98
66170;BMP280;66757;44.024;20.456;2023-05-07T12:16:14;98001.88;;;28.34
66170;BMP280;66757;44.024;20.456;2023-05-07T12:18:39;97998.22;;;28.40
66170;BMP280;66757;44.024;20.456;2023-05-07T12:21:06;97995.09;;;28.06
66170;BMP280;66757;44.024;20.456;2023-05-07T12:23:32;97993.09;;;27.71
66170;BMP280;66757;44.024;20.456;2023-05-07T12:25:59;97995.81;;;28.10
66170;BMP280;66757;44.024;20.456;2023-05-07T12:28:24;98000.88;;;27.33
66170;BMP280;66757;44.024;20.456;2023-05-07T12:30:50;98001.75;;;27.06
66170;BMP280;66757;44.024;20.456;2023-05-07T12:33:18;98003.34;;;27.47
66170;BMP280;66757;44.024;20.456;2023-05-07T12:35:44;97994.06;;;27.44
66170;BMP280;66757;44.024;20.456;2023-05-07T12:38:15;97994.47;;;28.34
66170;BMP280;66757;44.024;20.456;2023-05-07T12:40:46;97992.41;;;28.55
66170;BMP280;66757;44.024;20.456;2023-05-07T12:43:25;97991.44;;;28.93
66170;BMP280;66757;44.024;20.456;2023-05-07T12:45:51;97984.34;;;29.25
66170;BMP280;66757;44.024;20.456;2023-05-07T12:48:17;97986.69;;;28.33
66170;BMP280;66757;44.024;20.456;2023-05-07T12:50:44;97985.06;;;29.13
66170;BMP280;66757;44.024;20.456;2023-05-07T12:53:11;97988.72;;;28.13
66170;BMP280;66757;44.024;20.456;2023-05-07T12:55:45;97989.22;;;27.52
66170;BMP280;66757;44.024;20.456;2023-05-07T12:58:33;97985.56;;;28.30
66170;BMP280;66757;44.024;20.456;2023-05-07T13:01:00;97988.38;;;28.27
66170;BMP280;66757;44.024;20.456;2023-05-07T13:03:34;97983.75;;;28.88
66170;BMP280;66757;44.024;20.456;2023-05-07T13:06:02;97989.16;;;27.75
66170;BMP280;66757;44.024;20.456;2023-05-07T13:08:39;97974.59;;;27.82
66170;BMP280;66757;44.024;20.456;2023-05-07T13:11:09;97975.47;;;27.95
66170;BMP280;66757;44.024;20.456;2023-05-07T13:13:36;97968.69;;;28.35
66170;BMP280;66757;44.024;20.456;2023-05-07T13:16:03;97962.97;;;28.46
66170;BMP280;66757;44.024;20.456;2023-05-07T13:18:29;97964.47;;;28.34
66170;BMP280;66757;44.024;20.456;2023-05-07T13:20:57;97957.25;;;28.57
66170;BMP280;66757;44.024;20.456;2023-05-07T13:23:22;97953.72;;;29.17
66170;BMP280;66757;44.024;20.456;2023-05-07T13:25:49;97958.44;;;27.91
66170;BMP280;66757;44.024;20.456;2023-05-07T13:28:14;97953.56;;;27.98
66170;BMP280;66757;44.024;20.456;2023-05-07T13:30:41;97949.88;;;28.25
66170;BMP280;66757;44.024;20.456;2023-05-07T13:33:07;97946.56;;;28.49
66170;BMP280;66757;44.024;20.456;2023-05-07T13:35:32;97947.28;;;28.50
66170;BMP280;66757;44.024;20.456;2023-05-07T13:37:59;97944.47;;;28.98
66170;BMP280;66757;44.024;20.456;2023-05-07T13:40:26;97945.06;;;28.45
66170;BMP280;66757;44.024;20.456;2023-05-07T13:42:51;97938.31;;;28.66
66170;BMP280;66757;44.024;20.456;2023-05-07T13:45:20;97935.06;;;28.71
66170;BMP280;66757;44.024;20.456;2023-05-07T13:47:46;97942.44;;;28.86
66170;BMP280;66757;44.024;20.456;2023-05-07T13:50:12;97936.84;;;27.80
66170;BMP280;66757;44.024;20.456;2023-05-07T13:52:43;97939.06;;;28.82
66170;BMP280;66757;44.024;20.456;2023-05-07T13:55:15;97936.19;;;28.73
66170;BMP280;66757;44.024;20.456;2023-05-07T13:57:42;97943.09;;;28.62
66170;BMP280;66757;44.024;20.456;2023-05-07T14:00:08;97932.94;;;28.62
66170;BMP280;66757;44.024;20.456;2023-05-07T14:02:34;97931.91;;;28.72
66170;BMP280;66757;44.024;20.456;2023-05-07T14:05:00;97935.41;;;28.57